Lowell, Washington
Current Conditions -  °F | °C
As of 6:53 PM on Saturday 20 Dec 2014 (Local Time) from KPAE Reporting Station
Overcast Overcast  
Wind Chill: 53°   Ceiling: 900
Heat Index: 53°   Visibility: 10mi
Dew Point: 50°   Wind: 22mph
Humidity: 89%   Direction: 200°SSW
Pressure: 29.42"   Gusts: 28mph
Location:  47.9451°N, 122.226°W
Report Text: KPAE 210253Z 20019G24KT 10SM OVC009 12/10 A2942 RMK AO2 PK WND 19030/0230 CIG 006V011 SLP963 60001 T01170100 56011
Loading
Personal Weather Stations






























Interactive Weather Map New forecast layout! Learn more

10-Day Weather Forecast

Advertisements
Track Severe Weather on mobile